createdAt,value
2019-01-15T00:00:57.991Z,2.70
2019-01-15T00:03:39.068Z,2.70
2019-01-15T00:06:20.551Z,2.70
2019-01-15T00:12:09.121Z,2.70
2019-01-15T00:14:50.894Z,2.70
2019-01-15T00:17:30.619Z,2.70
2019-01-15T00:20:18.626Z,2.60
2019-01-15T00:23:06.674Z,2.50
2019-01-15T00:25:54.590Z,2.40
2019-01-15T00:28:42.615Z,2.30
2019-01-15T00:31:30.535Z,2.20
2019-01-15T00:34:37.944Z,2.20
2019-01-15T00:37:25.899Z,2.20
2019-01-15T00:40:33.282Z,2.20
2019-01-15T00:43:40.683Z,2.20
2019-01-15T00:46:22.659Z,2.20
2019-01-15T00:49:04.411Z,2.10
2019-01-15T00:51:45.596Z,2.00
2019-01-15T00:54:27.423Z,1.90
2019-01-15T00:57:09.308Z,1.90
2019-01-15T00:59:50.426Z,1.80
2019-01-15T01:02:32.162Z,1.70
2019-01-15T01:05:14.011Z,1.60
2019-01-15T01:07:55.918Z,1.60
2019-01-15T01:10:37.274Z,1.50
2019-01-15T01:13:19.360Z,1.50
2019-01-15T01:16:01.244Z,1.50
2019-01-15T01:18:43.049Z,1.50
2019-01-15T01:21:25.003Z,1.40
2019-01-15T01:24:07.036Z,1.40
2019-01-15T01:26:46.740Z,1.30
2019-01-15T01:29:34.698Z,1.30
2019-01-15T01:32:22.778Z,1.30
2019-01-15T01:35:10.867Z,1.30
2019-01-15T01:38:18.242Z,1.30
2019-01-15T01:41:06.307Z,1.40
2019-01-15T01:43:45.955Z,1.40
2019-01-15T01:46:33.917Z,1.50
2019-01-15T01:49:21.918Z,1.50
2019-01-15T01:52:29.537Z,1.50
2019-01-15T01:55:19.198Z,1.50
2019-01-15T01:58:07.135Z,1.60
2019-01-15T02:01:14.554Z,1.60
2019-01-15T02:04:02.679Z,1.60
2019-01-15T02:06:43.867Z,1.70
2019-01-15T02:09:12.596Z,1.70
2019-01-15T02:12:02.271Z,1.70
2019-01-15T02:14:50.261Z,1.70
2019-01-15T02:17:38.282Z,1.70
2019-01-15T02:20:26.226Z,1.80
2019-01-15T02:23:14.210Z,1.80
2019-01-15T02:26:02.159Z,1.80
2019-01-15T02:28:50.127Z,1.80
2019-01-15T02:31:57.741Z,1.80
2019-01-15T02:34:45.717Z,1.80
2019-01-15T02:37:53.135Z,1.90
2019-01-15T02:41:00.586Z,1.90
2019-01-15T02:44:08.015Z,2.00
2019-01-15T02:46:51.511Z,2.00
2019-01-15T02:49:33.447Z,2.10
2019-01-15T02:52:14.604Z,2.10
2019-01-15T02:54:56.471Z,2.20
2019-01-15T02:57:38.547Z,2.20
2019-01-15T03:00:20.524Z,2.20
2019-01-15T03:03:00.418Z,2.20
2019-01-15T03:05:48.558Z,2.20
2019-01-15T03:08:36.586Z,2.30
2019-01-15T03:11:24.522Z,2.30
2019-01-15T03:14:31.923Z,2.30
2019-01-15T03:17:39.374Z,2.30
2019-01-15T03:20:27.326Z,2.20
2019-01-15T03:23:34.743Z,2.30
2019-01-15T03:26:22.739Z,2.30
2019-01-15T03:29:10.756Z,2.30
2019-01-15T03:31:58.839Z,2.30
2019-01-15T03:34:46.791Z,2.40
2019-01-15T03:37:34.717Z,2.40
2019-01-15T03:40:22.662Z,2.40
2019-01-15T03:43:10.598Z,2.40
2019-01-15T03:45:51.823Z,2.40
2019-01-15T03:48:33.487Z,2.50
2019-01-15T03:51:14.865Z,2.50
2019-01-15T03:53:56.656Z,2.50
2019-01-15T03:56:38.243Z,2.50
2019-01-15T03:59:19.952Z,2.50
2019-01-15T04:02:02.056Z,2.50
2019-01-15T04:04:43.743Z,2.50
2019-01-15T04:07:25.744Z,2.50
2019-01-15T04:10:07.299Z,2.50
2019-01-15T04:12:48.902Z,2.50
2019-01-15T04:15:30.492Z,2.60
2019-01-15T04:18:12.503Z,2.60
2019-01-15T04:20:53.672Z,2.60
2019-01-15T04:23:35.656Z,2.70
2019-01-15T04:26:16.795Z,2.80
2019-01-15T04:28:57.998Z,2.80
2019-01-15T04:31:39.158Z,2.80
2019-01-15T04:34:20.978Z,2.80
2019-01-15T04:37:02.957Z,2.80
2019-01-15T04:39:44.587Z,2.90
2019-01-15T04:42:26.592Z,2.90
2019-01-15T04:45:08.722Z,2.90
2019-01-15T04:47:50.553Z,2.90
2019-01-15T04:50:30.203Z,2.90
2019-01-15T04:53:18.212Z,3.00
2019-01-15T04:56:06.224Z,3.00
2019-01-15T04:59:13.705Z,3.00
2019-01-15T05:02:01.711Z,3.00
2019-01-15T05:05:09.179Z,3.00
2019-01-15T05:07:57.121Z,3.00
2019-01-15T05:10:45.094Z,3.10
2019-01-15T05:13:33.128Z,3.00
2019-01-15T05:16:21.144Z,3.10
2019-01-15T05:19:09.175Z,3.10
2019-01-15T05:21:57.114Z,3.10
2019-01-15T05:24:45.175Z,3.10
2019-01-15T05:27:33.115Z,3.10
2019-01-15T05:30:40.614Z,3.10
2019-01-15T05:33:48.019Z,3.10
2019-01-15T05:36:55.394Z,3.10
2019-01-15T05:39:43.352Z,3.20
2019-01-15T05:42:31.287Z,3.20
2019-01-15T05:45:38.707Z,3.20
2019-01-15T05:48:20.817Z,3.30
2019-01-15T05:51:07.887Z,3.30
2019-01-15T05:53:55.855Z,3.20
2019-01-15T05:56:43.790Z,3.30
2019-01-15T05:59:31.819Z,3.30
2019-01-15T06:02:31.655Z,3.30
2019-01-15T06:05:28.879Z,3.30
2019-01-15T06:08:16.814Z,3.30
2019-01-15T06:11:04.987Z,3.40
2019-01-15T06:13:54.535Z,3.40
2019-01-15T06:16:42.558Z,3.40
2019-01-15T06:19:30.720Z,3.40
2019-01-15T06:22:18.702Z,3.40
2019-01-15T06:25:06.704Z,3.30
2019-01-15T06:27:54.742Z,3.40
2019-01-15T06:30:42.686Z,3.40
2019-01-15T06:33:30.631Z,3.50
2019-01-15T06:36:18.647Z,3.60
2019-01-15T06:38:47.356Z,3.60
2019-01-15T06:41:16.000Z,3.60
2019-01-15T06:43:50.015Z,3.70
2019-01-15T06:46:15.219Z,3.70
2019-01-15T06:49:03.219Z,3.70
2019-01-15T06:51:51.192Z,3.80
2019-01-15T06:54:39.244Z,3.80
2019-01-15T06:57:27.262Z,3.80
2019-01-15T07:00:15.275Z,3.80
2019-01-15T07:03:03.305Z,3.80
2019-01-15T07:05:51.402Z,3.80
2019-01-15T07:08:39.427Z,3.80
2019-01-15T07:11:27.362Z,3.90
2019-01-15T07:14:34.773Z,3.90
2019-01-15T07:17:42.154Z,3.90
2019-01-15T07:20:30.136Z,3.90
2019-01-15T07:23:37.550Z,3.90
2019-01-15T07:26:25.563Z,4.00
2019-01-15T07:29:13.575Z,4.00
2019-01-15T07:32:03.138Z,4.00
2019-01-15T07:35:10.547Z,4.10
2019-01-15T07:37:58.558Z,4.20
2019-01-15T07:40:46.579Z,4.20
2019-01-15T07:43:53.990Z,4.20
2019-01-15T07:46:54.474Z,4.30
2019-01-15T07:49:36.674Z,4.30
2019-01-15T07:52:17.870Z,4.40
2019-01-15T07:54:59.828Z,4.40
2019-01-15T07:57:41.091Z,4.40
2019-01-15T08:00:22.608Z,4.40
2019-01-15T08:03:04.117Z,4.50
2019-01-15T08:05:45.684Z,4.50
2019-01-15T08:08:27.002Z,4.50
2019-01-15T08:11:09.162Z,4.50
2019-01-15T08:13:51.062Z,4.50
2019-01-15T08:16:33.131Z,4.60
2019-01-15T08:19:15.132Z,4.60
2019-01-15T08:21:43.902Z,4.50
2019-01-15T08:24:31.855Z,4.50
2019-01-15T08:27:19.807Z,4.50
2019-01-15T08:30:07.802Z,4.60
2019-01-15T08:32:55.774Z,4.60
2019-01-15T08:35:43.774Z,4.70
2019-01-15T08:38:31.738Z,4.80
2019-01-15T08:41:19.695Z,4.90
2019-01-15T08:44:07.647Z,4.90
2019-01-15T08:46:50.915Z,5.00
2019-01-15T08:49:33.015Z,5.00
2019-01-15T08:52:14.152Z,5.20
2019-01-15T08:54:55.226Z,5.30
2019-01-15T08:57:36.319Z,5.30
2019-01-15T09:00:16.015Z,5.40
2019-01-15T09:02:44.639Z,5.30
2019-01-15T09:05:13.377Z,5.30
2019-01-15T09:07:42.123Z,5.40
2019-01-15T09:10:12.220Z,5.40
2019-01-15T09:12:40.954Z,5.40
2019-01-15T09:15:11.049Z,5.40
2019-01-15T09:17:59.067Z,5.50
2019-01-15T09:21:06.527Z,5.50
2019-01-15T09:23:54.559Z,5.60
2019-01-15T09:26:42.603Z,5.70
2019-01-15T09:29:30.541Z,5.60
2019-01-15T09:32:18.524Z,5.70
2019-01-15T09:35:06.470Z,5.60
2019-01-15T09:38:13.886Z,5.60
2019-01-15T09:41:21.311Z,5.60
2019-01-15T09:44:34.001Z,5.60
2019-01-15T09:47:32.036Z,5.60
2019-01-15T09:50:13.558Z,5.80
2019-01-15T09:52:55.475Z,6.10
2019-01-15T09:55:37.523Z,6.40
2019-01-15T09:58:17.266Z,6.20
2019-01-15T10:01:05.327Z,6.20
2019-01-15T10:03:53.314Z,6.20
2019-01-15T10:06:41.296Z,6.10
2019-01-15T10:09:30.863Z,6.10
2019-01-15T10:12:38.255Z,6.20
2019-01-15T10:15:45.674Z,6.20
2019-01-15T10:18:53.007Z,6.20
2019-01-15T10:24:42.934Z,6.30
2019-01-15T10:30:51.978Z,6.20
2019-01-15T10:33:59.407Z,6.20
2019-01-15T10:36:47.347Z,6.30
2019-01-15T10:39:35.291Z,6.30
2019-01-15T10:42:23.230Z,6.30
2019-01-15T10:45:30.643Z,6.40
2019-01-15T10:48:32.047Z,6.40
2019-01-15T10:51:11.717Z,6.40
2019-01-15T10:53:59.677Z,6.40
2019-01-15T10:56:49.257Z,6.50
2019-01-15T10:59:56.735Z,6.50
2019-01-15T11:02:44.666Z,6.40
2019-01-15T11:05:52.332Z,6.50
2019-01-15T11:08:42.147Z,6.50
2019-01-15T11:11:30.100Z,6.50
2019-01-15T11:14:20.071Z,6.50
2019-01-15T11:17:27.539Z,6.50
2019-01-15T11:20:35.036Z,6.50
2019-01-15T11:23:22.961Z,6.50
2019-01-15T11:26:10.987Z,6.50
2019-01-15T11:28:58.972Z,6.60
2019-01-15T11:31:46.977Z,6.70
2019-01-15T11:34:34.919Z,6.70
2019-01-15T11:37:23.023Z,6.70
2019-01-15T11:40:30.531Z,6.80
2019-01-15T11:43:18.470Z,6.80
2019-01-15T11:46:00.520Z,6.70
2019-01-15T11:48:42.457Z,6.70
2019-01-15T11:51:24.471Z,6.70
2019-01-15T11:54:04.378Z,6.70
2019-01-15T11:57:11.691Z,6.70
2019-01-15T11:59:59.703Z,6.70
2019-01-15T12:06:08.283Z,6.70
2019-01-15T12:09:15.517Z,6.80
2019-01-15T12:12:22.795Z,7.00
2019-01-15T12:15:30.080Z,7.20
2019-01-15T12:21:38.672Z,7.10
2019-01-15T12:24:46.123Z,7.10
2019-01-15T12:30:55.141Z,6.90
2019-01-15T12:34:02.388Z,6.80
2019-01-15T12:37:09.643Z,6.70
2019-01-15T12:40:17.076Z,6.60
2019-01-15T12:43:24.389Z,6.60
2019-01-15T12:49:19.071Z,6.50
2019-01-15T12:52:20.389Z,6.50
2019-01-15T12:57:51.347Z,6.40
2019-01-15T13:03:38.232Z,6.20
2019-01-15T13:12:44.641Z,6.10
2019-01-15T13:15:34.438Z,6.10
2019-01-15T13:18:12.773Z,6.00
2019-01-15T13:24:14.861Z,5.90
2019-01-15T13:26:58.082Z,6.00
2019-01-15T13:29:52.928Z,5.90
2019-01-15T13:32:53.742Z,5.90
2019-01-15T13:35:39.591Z,5.80
2019-01-15T13:38:22.831Z,5.80
2019-01-15T13:41:06.423Z,5.80
2019-01-15T13:46:54.583Z,5.80
2019-01-15T13:49:55.520Z,5.80
2019-01-15T13:52:43.802Z,5.90
2019-01-15T13:55:29.572Z,5.90
2019-01-15T13:58:30.412Z,6.00
2019-01-15T14:04:15.787Z,6.00
2019-01-15T14:06:59.346Z,6.00
2019-01-15T14:12:46.155Z,6.10
2019-01-15T14:15:49.054Z,6.10
2019-01-15T14:18:34.754Z,6.10
2019-01-15T14:21:35.183Z,6.10
2019-01-15T14:24:35.884Z,6.10
2019-01-15T14:29:59.803Z,6.00
2019-01-15T14:33:00.895Z,5.90
2019-01-15T14:35:44.263Z,5.90
2019-01-15T14:38:46.392Z,5.80
2019-01-15T14:41:47.224Z,5.90
2019-01-15T14:44:48.219Z,5.90
2019-01-15T14:47:34.404Z,5.90
2019-01-15T14:50:17.761Z,5.90
2019-01-15T14:53:18.392Z,5.90
2019-01-15T14:56:18.884Z,6.00
2019-01-15T14:59:06.909Z,5.90
2019-01-15T15:02:14.134Z,5.90
2019-01-15T15:05:21.461Z,5.90
2019-01-15T15:08:28.696Z,5.90
2019-01-15T15:11:35.955Z,5.90
2019-01-15T15:14:43.362Z,5.90
2019-01-15T15:17:50.623Z,5.90
2019-01-15T15:20:57.951Z,5.90
2019-01-15T15:24:05.234Z,5.90
2019-01-15T15:26:48.799Z,5.90
2019-01-15T15:35:42.688Z,6.00
2019-01-15T15:38:25.514Z,6.00
2019-01-15T15:41:26.796Z,6.00
2019-01-15T15:44:27.766Z,6.00
2019-01-15T15:47:29.507Z,6.00
2019-01-15T15:50:30.427Z,6.00
2019-01-15T15:53:32.962Z,6.00
2019-01-15T15:56:40.411Z,6.00
2019-01-15T15:59:47.728Z,6.00
2019-01-15T16:02:55.024Z,6.00
2019-01-15T16:06:02.345Z,6.00
2019-01-15T16:12:10.992Z,6.00
2019-01-15T16:15:18.328Z,6.00
2019-01-15T16:21:28.829Z,6.00
2019-01-15T16:24:36.108Z,6.00
2019-01-15T16:27:43.408Z,6.00
2019-01-15T16:30:50.651Z,6.00
2019-01-15T16:37:06.657Z,6.00
2019-01-15T16:43:01.883Z,6.10
2019-01-15T16:49:05.538Z,6.10
2019-01-15T16:52:07.288Z,6.20
2019-01-15T16:55:08.487Z,6.20
2019-01-15T16:57:51.565Z,6.20
2019-01-15T17:00:34.469Z,6.20
2019-01-15T17:03:20.448Z,6.30
2019-01-15T17:09:09.498Z,6.30
2019-01-15T17:12:10.130Z,6.30
2019-01-15T17:14:58.054Z,6.30
2019-01-15T17:21:06.628Z,6.30
2019-01-15T17:29:53.723Z,6.30
2019-01-15T17:36:00.048Z,6.30
2019-01-15T17:39:07.314Z,6.30
2019-01-15T17:42:14.746Z,6.30
2019-01-15T17:45:22.036Z,6.30
2019-01-15T17:51:03.152Z,6.30
2019-01-15T17:53:45.946Z,6.30
2019-01-15T17:56:28.975Z,6.40
2019-01-15T17:59:12.172Z,6.40
2019-01-15T18:05:02.407Z,6.40
2019-01-15T18:14:16.150Z,6.40
2019-01-15T18:23:26.035Z,6.40
2019-01-15T18:29:34.632Z,6.50
2019-01-15T18:32:41.975Z,6.40
2019-01-15T18:35:49.301Z,6.50
2019-01-15T18:45:07.051Z,6.40
2019-01-15T18:47:49.029Z,6.40
2019-01-15T18:50:51.300Z,6.40
2019-01-15T18:53:52.159Z,6.40
2019-01-15T18:56:53.233Z,6.50
2019-01-15T18:59:36.615Z,6.50
2019-01-15T19:02:20.101Z,6.50
2019-01-15T19:05:06.008Z,6.40
2019-01-15T19:10:50.525Z,6.50
2019-01-15T19:13:51.697Z,6.50
2019-01-15T19:20:11.188Z,6.50
2019-01-15T19:23:18.518Z,6.50
2019-01-15T19:26:25.741Z,6.50
2019-01-15T19:29:33.074Z,6.50
2019-01-15T19:32:40.424Z,6.40
2019-01-15T19:36:07.151Z,6.40
2019-01-15T19:48:30.095Z,6.50
2019-01-15T19:57:27.691Z,6.40
2019-01-15T20:03:29.871Z,6.50
2019-01-15T20:06:13.525Z,6.40
2019-01-15T20:08:59.476Z,6.40
2019-01-15T20:11:47.731Z,6.40
2019-01-15T20:15:07.727Z,6.50
2019-01-15T20:17:53.455Z,6.40
2019-01-15T20:20:55.024Z,6.40
2019-01-15T20:26:58.813Z,6.40
2019-01-15T20:29:42.207Z,6.40
2019-01-15T20:35:31.473Z,6.40
2019-01-15T20:44:41.163Z,6.40
2019-01-15T20:47:43.264Z,6.40
2019-01-15T20:50:29.275Z,6.40
2019-01-15T20:56:45.737Z,6.40
2019-01-15T20:59:52.987Z,6.40
2019-01-15T21:06:01.877Z,6.30
2019-01-15T21:09:09.306Z,6.40
2019-01-15T21:12:16.786Z,6.40
2019-01-15T21:18:32.838Z,6.40
2019-01-15T21:21:21.041Z,6.40
2019-01-15T21:24:28.415Z,6.30
2019-01-15T21:27:35.744Z,6.30
2019-01-15T21:30:50.248Z,6.20
2019-01-15T21:33:32.808Z,6.20
2019-01-15T21:36:40.081Z,6.20
2019-01-15T21:39:47.554Z,6.20
2019-01-15T21:42:54.930Z,6.20
2019-01-15T21:46:02.384Z,6.20
2019-01-15T21:49:03.084Z,6.20
2019-01-15T21:54:57.611Z,6.20
2019-01-15T22:00:46.510Z,6.20
2019-01-15T22:03:47.088Z,6.20
2019-01-15T22:06:47.410Z,6.20
2019-01-15T22:09:33.242Z,6.20
2019-01-15T22:12:18.960Z,6.20
2019-01-15T22:15:22.578Z,6.20
2019-01-15T22:18:08.263Z,6.20
2019-01-15T22:20:50.378Z,6.30
2019-01-15T22:23:57.618Z,6.20
2019-01-15T22:27:05.046Z,6.30
2019-01-15T22:33:14.254Z,6.30
2019-01-15T22:39:24.830Z,6.30
2019-01-15T22:48:11.587Z,6.20
2019-01-15T22:50:57.859Z,6.30
2019-01-15T22:53:40.783Z,6.30
2019-01-15T22:59:24.187Z,6.30
2019-01-15T23:02:07.984Z,6.30
2019-01-15T23:04:54.219Z,6.40
2019-01-15T23:07:39.687Z,6.40
2019-01-15T23:10:40.526Z,6.40
2019-01-15T23:13:23.506Z,6.40
2019-01-15T23:16:08.926Z,6.40
2019-01-15T23:19:09.993Z,6.50
2019-01-15T23:21:55.727Z,6.40
2019-01-15T23:24:41.708Z,6.40
2019-01-15T23:27:27.708Z,6.40
2019-01-15T23:30:28.233Z,6.40
2019-01-15T23:39:32.256Z,6.50
2019-01-15T23:45:41.854Z,6.50
2019-01-15T23:48:27.370Z,6.50
2019-01-15T23:54:30.607Z,6.50
2019-01-15T23:57:15.927Z,6.50
